sensor_id;sensor_type;location;lat;lon;timestamp;pressure;altitude;pressure_sealevel;temperature;humidity
20145;BME280;10233;50.814;6.590;2023-04-22T00:00:22;99502.66;;;9.55;100.00
20145;BME280;10233;50.814;6.590;2023-04-22T00:01:23;99503.91;;;9.53;100.00
20145;BME280;10233;50.814;6.590;2023-04-22T00:02:29;99501.88;;;9.55;100.00
20145;BME280;10233;50.814;6.590;2023-04-22T00:03:29;99504.94;;;9.52;100.00
20145;BME280;10233;50.814;6.590;2023-04-22T00:04:30;99511.72;;;9.41;100.00
20145;BME280;10233;50.814;6.590;2023-04-22T00:05:30;99505.41;;;9.42;100.00
20145;BME280;10233;50.814;6.590;2023-04-22T00:06:31;99503.38;;;9.38;100.00
20145;BME280;10233;50.814;6.590;2023-04-22T00:07:32;99501.34;;;9.40;100.00
20145;BME280;10233;50.814;6.590;2023-04-22T00:08:32;99501.75;;;9.37;100.00
20145;BME280;10233;50.814;6.590;2023-04-22T00:09:33;99505.44;;;9.36;100.00
20145;BME280;10233;50.814;6.590;2023-04-22T00:10:34;99507.91;;;9.37;100.00
20145;BME280;10233;50.814;6.590;2023-04-22T00:11:34;99499.28;;;9.42;100.00
20145;BME280;10233;50.814;6.590;2023-04-22T00:12:35;99499.94;;;9.37;100.00
20145;BME280;10233;50.814;6.590;2023-04-22T00:13:36;99508.69;;;9.38;100.00
20145;BME280;10233;50.814;6.590;2023-04-22T00:14:36;99509.06;;;9.41;100.00
20145;BME280;10233;50.814;6.590;2023-04-22T00:15:37;99503.34;;;9.44;100.00
20145;BME280;10233;50.814;6.590;2023-04-22T00:16:38;99506.66;;;9.40;100.00
20145;BME280;10233;50.814;6.590;2023-04-22T00:17:39;99506.03;;;9.38;100.00
20145;BME280;10233;50.814;6.590;2023-04-22T00:18:40;99508.50;;;9.33;100.00
20145;BME280;10233;50.814;6.590;2023-04-22T00:19:40;99503.50;;;9.18;100.00
20145;BME280;10233;50.814;6.590;2023-04-22T00:20:42;99502.69;;;9.11;100.00
20145;BME280;10233;50.814;6.590;2023-04-22T00:21:43;99508.25;;;9.10;100.00
20145;BME280;10233;50.814;6.590;2023-04-22T00:22:43;99499.63;;;9.14;100.00
20145;BME280;10233;50.814;6.590;2023-04-22T00:23:44;99498.63;;;9.15;100.00
20145;BME280;10233;50.814;6.590;2023-04-22T00:24:44;99496.81;;;9.09;100.00
20145;BME280;10233;50.814;6.590;2023-04-22T00:25:45;99497.00;;;9.14;100.00
20145;BME280;10233;50.814;6.590;2023-04-22T00:26:46;99500.28;;;9.10;100.00
20145;BME280;10233;50.814;6.590;2023-04-22T00:27:46;99498.47;;;9.04;100.00
20145;BME280;10233;50.814;6.590;2023-04-22T00:28:47;99494.53;;;9.13;100.00
20145;BME280;10233;50.814;6.590;2023-04-22T00:29:47;99497.84;;;9.08;100.00
20145;BME280;10233;50.814;6.590;2023-04-22T00:30:48;99502.69;;;9.11;100.00
20145;BME280;10233;50.814;6.590;2023-04-22T00:31:49;99494.16;;;9.09;100.00
20145;BME280;10233;50.814;6.590;2023-04-22T00:32:49;99502.50;;;9.13;100.00
20145;BME280;10233;50.814;6.590;2023-04-22T00:33:50;99496.97;;;9.21;100.00
20145;BME280;10233;50.814;6.590;2023-04-22T00:34:50;99491.69;;;9.14;100.00
20145;BME280;10233;50.814;6.590;2023-04-22T00:35:51;99499.06;;;9.12;100.00
20145;BME280;10233;50.814;6.590;2023-04-22T00:36:53;99494.16;;;9.09;100.00
20145;BME280;10233;50.814;6.590;2023-04-22T00:37:54;99496.16;;;9.14;100.00
20145;BME280;10233;50.814;6.590;2023-04-22T00:38:55;99501.06;;;9.17;100.00
20145;BME280;10233;50.814;6.590;2023-04-22T00:39:56;99497.75;;;9.21;100.00
20145;BME280;10233;50.814;6.590;2023-04-22T00:40:58;99498.78;;;9.20;100.00
20145;BME280;10233;50.814;6.590;2023-04-22T00:41:59;99499.00;;;9.19;100.00
20145;BME280;10233;50.814;6.590;2023-04-22T00:43:00;99500.47;;;9.15;100.00
20145;BME280;10233;50.814;6.590;2023-04-22T00:44:02;99506.22;;;8.99;100.00
20145;BME280;10233;50.814;6.590;2023-04-22T00:45:03;99495.78;;;9.10;100.00
20145;BME280;10233;50.814;6.590;2023-04-22T00:46:05;99490.72;;;9.02;100.00
20145;BME280;10233;50.814;6.590;2023-04-22T00:47:06;99495.81;;;8.97;100.00
20145;BME280;10233;50.814;6.590;2023-04-22T00:48:08;99497.06;;;8.95;100.00
20145;BME280;10233;50.814;6.590;2023-04-22T00:49:08;99494.03;;;8.91;100.00
20145;BME280;10233;50.814;6.590;2023-04-22T00:50:09;99491.56;;;8.96;100.00
20145;BME280;10233;50.814;6.590;2023-04-22T00:51:10;99496.25;;;8.94;100.00
20145;BME280;10233;50.814;6.590;2023-04-22T00:52:10;99498.06;;;9.00;100.00
20145;BME280;10233;50.814;6.590;2023-04-22T00:53:11;99508.09;;;8.98;100.00
20145;BME280;10233;50.814;6.590;2023-04-22T00:54:11;99501.75;;;8.99;100.00
20145;BME280;10233;50.814;6.590;2023-04-22T00:55:12;99508.50;;;8.95;100.00
20145;BME280;10233;50.814;6.590;2023-04-22T00:56:13;99495.59;;;9.05;100.00
20145;BME280;10233;50.814;6.590;2023-04-22T00:57:13;99504.38;;;9.06;100.00
20145;BME280;10233;50.814;6.590;2023-04-22T00:58:16;99496.22;;;9.07;100.00
20145;BME280;10233;50.814;6.590;2023-04-22T00:59:18;99500.28;;;9.10;100.00
20145;BME280;10233;50.814;6.590;2023-04-22T01:00:20;99499.63;;;9.14;100.00
20145;BME280;10233;50.814;6.590;2023-04-22T01:01:26;99503.50;;;9.18;100.00
20145;BME280;10233;50.814;6.590;2023-04-22T01:02:27;99497.41;;;9.11;100.00
20145;BME280;10233;50.814;6.590;2023-04-22T01:03:28;99497.41;;;9.05;100.00
20145;BME280;10233;50.814;6.590;2023-04-22T01:04:29;99500.06;;;9.05;100.00
20145;BME280;10233;50.814;6.590;2023-04-22T01:05:30;99502.13;;;9.09;100.00
20145;BME280;10233;50.814;6.590;2023-04-22T01:06:33;99501.94;;;9.04;100.00
20145;BME280;10233;50.814;6.590;2023-04-22T01:07:34;99495.41;;;9.07;100.00
20145;BME280;10233;50.814;6.590;2023-04-22T01:08:35;99492.13;;;9.05;100.00
20145;BME280;10233;50.814;6.590;2023-04-22T01:09:36;99497.22;;;9.06;100.00
20145;BME280;10233;50.814;6.590;2023-04-22T01:10:40;99494.53;;;9.13;100.00
20145;BME280;10233;50.814;6.590;2023-04-22T01:11:41;99484.38;;;9.10;100.00
20145;BME280;10233;50.814;6.590;2023-04-22T01:12:41;99494.75;;;9.11;100.00
20145;BME280;10233;50.814;6.590;2023-04-22T01:13:42;99487.41;;;9.13;100.00
20145;BME280;10233;50.814;6.590;2023-04-22T01:14:42;99486.78;;;9.11;100.00
20145;BME280;10233;50.814;6.590;2023-04-22T01:15:43;99491.53;;;9.03;100.00
20145;BME280;10233;50.814;6.590;2023-04-22T01:16:44;99490.72;;;9.02;100.00
20145;BME280;10233;50.814;6.590;2023-04-22T01:17:45;99485.19;;;9.04;100.00
20145;BME280;10233;50.814;6.590;2023-04-22T01:18:45;99484.22;;;8.98;100.00
20145;BME280;10233;50.814;6.590;2023-04-22T01:19:47;99483.78;;;9.01;100.00
20145;BME280;10233;50.814;6.590;2023-04-22T01:20:48;99479.50;;;9.00;100.00
20145;BME280;10233;50.814;6.590;2023-04-22T01:21:52;99490.53;;;8.97;100.00
20145;BME280;10233;50.814;6.590;2023-04-22T01:22:54;99488.50;;;8.99;100.00
20145;BME280;10233;50.814;6.590;2023-04-22T01:24:00;99487.66;;;8.99;100.00
20145;BME280;10233;50.814;6.590;2023-04-22T01:25:01;99484.81;;;9.00;100.00
20145;BME280;10233;50.814;6.590;2023-04-22T01:26:02;99490.31;;;8.99;100.00
20145;BME280;10233;50.814;6.590;2023-04-22T01:27:03;99490.97;;;8.94;100.00
20145;BME280;10233;50.814;6.590;2023-04-22T01:28:03;99491.56;;;8.96;100.00
20145;BME280;10233;50.814;6.590;2023-04-22T01:29:04;99483.00;;;9.01;100.00
20145;BME280;10233;50.814;6.590;2023-04-22T01:30:06;99485.03;;;8.99;100.00
20145;BME280;10233;50.814;6.590;2023-04-22T01:31:07;99475.44;;;8.98;100.00
20145;BME280;10233;50.814;6.590;2023-04-22T01:32:09;99488.50;;;8.99;100.00
20145;BME280;10233;50.814;6.590;2023-04-22T01:33:10;99478.50;;;8.95;100.00
20145;BME280;10233;50.814;6.590;2023-04-22T01:34:11;99481.59;;;8.92;100.00
20145;BME280;10233;50.814;6.590;2023-04-22T01:35:12;99483.25;;;8.86;100.00
20145;BME280;10233;50.814;6.590;2023-04-22T01:36:13;99489.75;;;8.90;100.00
20145;BME280;10233;50.814;6.590;2023-04-22T01:37:13;99491.63;;;8.83;100.00
20145;BME280;10233;50.814;6.590;2023-04-22T01:38:14;99491.81;;;8.82;100.00
20145;BME280;10233;50.814;6.590;2023-04-22T01:39:14;99483.41;;;8.91;100.00
20145;BME280;10233;50.814;6.590;2023-04-22T01:40:15;99487.28;;;8.95;100.00
20145;BME280;10233;50.814;6.590;2023-04-22T01:41:18;99486.06;;;8.98;100.00
20145;BME280;10233;50.814;6.590;2023-04-22T01:42:20;99487.69;;;8.92;100.00
20145;BME280;10233;50.814;6.590;2023-04-22T01:43:21;99491.75;;;9.01;100.00
20145;BME280;10233;50.814;6.590;2023-04-22T01:44:22;99490.91;;;9.07;100.00
20145;BME280;10233;50.814;6.590;2023-04-22T01:45:23;99495.38;;;9.13;100.00
20145;BME280;10233;50.814;6.590;2023-04-22T01:46:24;99488.69;;;9.04;100.00
20145;BME280;10233;50.814;6.590;2023-04-22T01:47:25;99489.28;;;9.06;100.00
20145;BME280;10233;50.814;6.590;2023-04-22T01:48:27;99488.69;;;8.98;100.00
20145;BME280;10233;50.814;6.590;2023-04-22T01:49:30;99486.63;;;9.06;100.00
20145;BME280;10233;50.814;6.590;2023-04-22T01:50:31;99485.22;;;8.97;100.00
20145;BME280;10233;50.814;6.590;2023-04-22T01:51:32;99481.56;;;8.98;100.00
20145;BME280;10233;50.814;6.590;2023-04-22T01:52:32;99479.28;;;9.08;100.00
20145;BME280;10233;50.814;6.590;2023-04-22T01:53:34;99476.19;;;9.11;100.00
20145;BME280;10233;50.814;6.590;2023-04-22T01:54:35;99474.97;;;9.14;100.00
20145;BME280;10233;50.814;6.590;2023-04-22T01:55:37;99474.56;;;9.10;100.00
20145;BME280;10233;50.814;6.590;2023-04-22T01:56:38;99474.97;;;9.14;100.00
20145;BME280;10233;50.814;6.590;2023-04-22T01:57:39;99478.41;;;9.21;100.00
20145;BME280;10233;50.814;6.590;2023-04-22T01:58:40;99478.13;;;9.29;100.00
20145;BME280;10233;50.814;6.590;2023-04-22T01:59:41;99472.44;;;9.25;100.00
20145;BME280;10233;50.814;6.590;2023-04-22T02:00:42;99483.19;;;9.37;100.00
20145;BME280;10233;50.814;6.590;2023-04-22T02:01:44;99470.81;;;9.31;100.00
20145;BME280;10233;50.814;6.590;2023-04-22T02:02:44;99474.06;;;9.26;100.00
20145;BME280;10233;50.814;6.590;2023-04-22T02:03:45;99471.19;;;9.34;100.00
20145;BME280;10233;50.814;6.590;2023-04-22T02:04:47;99470.97;;;9.36;100.00
20145;BME280;10233;50.814;6.590;2023-04-22T02:05:47;99467.47;;;9.42;100.00
20145;BME280;10233;50.814;6.590;2023-04-22T02:06:48;99465.59;;;9.49;100.00
20145;BME280;10233;50.814;6.590;2023-04-22T02:07:52;99469.66;;;9.51;100.00
20145;BME280;10233;50.814;6.590;2023-04-22T02:08:53;99465.53;;;9.55;100.00
20145;BME280;10233;50.814;6.590;2023-04-22T02:09:53;99471.53;;;9.44;100.00
20145;BME280;10233;50.814;6.590;2023-04-22T02:10:54;99469.78;;;9.25;100.00
20145;BME280;10233;50.814;6.590;2023-04-22T02:11:54;99464.97;;;9.16;100.00
20145;BME280;10233;50.814;6.590;2023-04-22T02:12:55;99460.25;;;9.18;100.00
20145;BME280;10233;50.814;6.590;2023-04-22T02:13:55;99461.25;;;9.23;100.00
20145;BME280;10233;50.814;6.590;2023-04-22T02:14:56;99467.22;;;9.12;100.00
20145;BME280;10233;50.814;6.590;2023-04-22T02:15:58;99469.63;;;9.20;100.00
20145;BME280;10233;50.814;6.590;2023-04-22T02:16:59;99460.00;;;9.26;100.00
20145;BME280;10233;50.814;6.590;2023-04-22T02:18:01;99461.41;;;9.35;100.00
20145;BME280;10233;50.814;6.590;2023-04-22T02:19:02;99463.41;;;9.39;100.00
20145;BME280;10233;50.814;6.590;2023-04-22T02:20:03;99466.22;;;9.44;100.00
20145;BME280;10233;50.814;6.590;2023-04-22T02:21:04;99465.03;;;9.34;100.00
20145;BME280;10233;50.814;6.590;2023-04-22T02:22:04;99465.94;;;9.21;100.00
20145;BME280;10233;50.814;6.590;2023-04-22T02:23:05;99465.16;;;9.21;100.00
20145;BME280;10233;50.814;6.590;2023-04-22T02:24:06;99468.41;;;9.16;100.00
20145;BME280;10233;50.814;6.590;2023-04-22T02:25:07;99469.44;;;9.15;100.00
20145;BME280;10233;50.814;6.590;2023-04-22T02:26:08;99466.81;;;9.09;100.00
20145;BME280;10233;50.814;6.590;2023-04-22T02:27:09;99467.25;;;9.06;100.00
20145;BME280;10233;50.814;6.590;2023-04-22T02:28:09;99466.97;;;9.20;100.00
20145;BME280;10233;50.814;6.590;2023-04-22T02:29:10;99471.59;;;9.31;100.00
20145;BME280;10233;50.814;6.590;2023-04-22T02:30:11;99464.66;;;9.30;100.00
20145;BME280;10233;50.814;6.590;2023-04-22T02:31:11;99468.31;;;9.36;100.00
20145;BME280;10233;50.814;6.590;2023-04-22T02:32:14;99469.13;;;9.36;100.00
20145;BME280;10233;50.814;6.590;2023-04-22T02:33:16;99468.69;;;9.39;100.00
20145;BME280;10233;50.814;6.590;2023-04-22T02:34:17;99468.25;;;9.49;100.00
20145;BME280;10233;50.814;6.590;2023-04-22T02:35:17;99471.53;;;9.44;100.00
20145;BME280;10233;50.814;6.590;2023-04-22T02:36:18;99464.59;;;9.43;100.00
20145;BME280;10233;50.814;6.590;2023-04-22T02:37:19;99464.59;;;9.43;100.00
20145;BME280;10233;50.814;6.590;2023-04-22T02:38:21;99462.69;;;9.50;100.00
20145;BME280;10233;50.814;6.590;2023-04-22T02:39:21;99460.88;;;9.51;100.00
20145;BME280;10233;50.814;6.590;2023-04-22T02:40:22;99466.56;;;9.54;100.00
20145;BME280;10233;50.814;6.590;2023-04-22T02:41:23;99462.28;;;9.53;100.00
20145;BME280;10233;50.814;6.590;2023-04-22T02:42:24;99463.50;;;9.57;100.00
20145;BME280;10233;50.814;6.590;2023-04-22T02:43:24;99455.84;;;9.67;100.00
20145;BME280;10233;50.814;6.590;2023-04-22T02:44:25;99459.31;;;9.68;100.00
20145;BME280;10233;50.814;6.590;2023-04-22T02:45:25;99458.38;;;9.56;100.00
20145;BME280;10233;50.814;6.590;2023-04-22T02:46:26;99458.56;;;9.61;100.00
20145;BME280;10233;50.814;6.590;2023-04-22T02:47:26;99457.47;;;9.68;100.00
20145;BME280;10233;50.814;6.590;2023-04-22T02:48:27;99450.56;;;9.67;100.00
20145;BME280;10233;50.814;6.590;2023-04-22T02:49:28;99444.78;;;9.70;100.00
20145;BME280;10233;50.814;6.590;2023-04-22T02:50:28;99453.22;;;9.67;100.00
20145;BME280;10233;50.814;6.590;2023-04-22T02:51:29;99443.56;;;9.73;100.00
20145;BME280;10233;50.814;6.590;2023-04-22T02:52:32;99441.06;;;9.78;100.00
20145;BME280;10233;50.814;6.590;2023-04-22T02:53:32;99448.59;;;9.81;100.00
20145;BME280;10233;50.814;6.590;2023-04-22T02:54:33;99446.38;;;9.78;100.00
20145;BME280;10233;50.814;6.590;2023-04-22T02:55:34;99444.47;;;9.60;100.00
20145;BME280;10233;50.814;6.590;2023-04-22T02:56:35;99450.59;;;9.61;100.00
20145;BME280;10233;50.814;6.590;2023-04-22T02:57:36;99441.34;;;9.70;100.00
20145;BME280;10233;50.814;6.590;2023-04-22T02:58:36;99447.59;;;9.75;100.00
20145;BME280;10233;50.814;6.590;2023-04-22T02:59:37;99448.28;;;9.71;100.00
20145;BME280;10233;50.814;6.590;2023-04-22T03:00:38;99448.03;;;9.79;100.00
20145;BME280;10233;50.814;6.590;2023-04-22T03:01:38;99444.13;;;9.81;100.00
20145;BME280;10233;50.814;6.590;2023-04-22T03:02:44;99450.72;;;9.72;100.00
20145;BME280;10233;50.814;6.590;2023-04-22T03:03:47;99451.31;;;9.74;100.00
20145;BME280;10233;50.814;6.590;2023-04-22T03:04:53;99447.91;;;9.67;100.00
20145;BME280;10233;50.814;6.590;2023-04-22T03:05:54;99450.75;;;9.66;100.00
20145;BME280;10233;50.814;6.590;2023-04-22T03:06:55;99459.25;;;9.74;100.00
20145;BME280;10233;50.814;6.590;2023-04-22T03:07:56;99447.25;;;9.72;100.00
20145;BME280;10233;50.814;6.590;2023-04-22T03:08:56;99447.59;;;9.75;100.00
20145;BME280;10233;50.814;6.590;2023-04-22T03:09:57;99450.88;;;9.77;100.00
20145;BME280;10233;50.814;6.590;2023-04-22T03:10:58;99443.84;;;9.65;100.00
20145;BME280;10233;50.814;6.590;2023-04-22T03:11:58;99444.00;;;9.70;100.00
20145;BME280;10233;50.814;6.590;2023-04-22T03:12:59;99449.16;;;9.65;100.00
20145;BME280;10233;50.814;6.590;2023-04-22T03:13:59;99444.91;;;9.57;100.00
20145;BME280;10233;50.814;6.590;2023-04-22T03:15:01;99446.53;;;9.58;100.00
20145;BME280;10233;50.814;6.590;2023-04-22T03:16:04;99437.50;;;9.66;100.00
20145;BME280;10233;50.814;6.590;2023-04-22T03:17:06;99437.25;;;9.74;100.00
20145;BME280;10233;50.814;6.590;2023-04-22T03:18:07;99437.06;;;9.69;100.00
20145;BME280;10233;50.814;6.590;2023-04-22T03:19:07;99437.00;;;9.51;100.00
20145;BME280;10233;50.814;6.590;2023-04-22T03:20:08;99432.69;;;9.56;100.00
20145;BME280;10233;50.814;6.590;2023-04-22T03:21:09;99440.81;;;9.61;100.00
20145;BME280;10233;50.814;6.590;2023-04-22T03:22:09;99438.94;;;9.62;100.00
20145;BME280;10233;50.814;6.590;2023-04-22T03:23:10;99438.16;;;9.61;100.00
20145;BME280;10233;50.814;6.590;2023-04-22T03:24:11;99449.03;;;9.53;100.00
20145;BME280;10233;50.814;6.590;2023-04-22T03:25:17;99441.22;;;9.58;100.00
20145;BME280;10233;50.814;6.590;2023-04-22T03:26:27;99439.66;;;9.51;100.00
20145;BME280;10233;50.814;6.590;2023-04-22T03:27:27;99447.56;;;9.57;100.00
20145;BME280;10233;50.814;6.590;2023-04-22T03:28:28;99437.16;;;9.56;100.00
20145;BME280;10233;50.814;6.590;2023-04-22T03:29:29;99439.41;;;9.59;100.00
20145;BME280;10233;50.814;6.590;2023-04-22T03:30:30;99431.84;;;9.56;100.00
20145;BME280;10233;50.814;6.590;2023-04-22T03:31:31;99434.47;;;9.62;100.00
20145;BME280;10233;50.814;6.590;2023-04-22T03:32:31;99428.16;;;9.57;100.00
20145;BME280;10233;50.814;6.590;2023-04-22T03:33:46;99430.91;;;9.75;100.00
20145;BME280;10233;50.814;6.590;2023-04-22T03:34:56;99424.38;;;9.71;100.00
20145;BME280;10233;50.814;6.590;2023-04-22T03:35:57;99432.56;;;9.69;100.00
20145;BME280;10233;50.814;6.590;2023-04-22T03:36:58;99423.16;;;9.73;100.00
20145;BME280;10233;50.814;6.590;2023-04-22T03:37:59;99420.59;;;9.60;100.00
20145;BME280;10233;50.814;6.590;2023-04-22T03:39:05;99420.31;;;9.68;100.00
20145;BME280;10233;50.814;6.590;2023-04-22T03:40:08;99415.84;;;9.69;100.00
20145;BME280;10233;50.814;6.590;2023-04-22T03:41:09;99416.69;;;9.63;100.00
20145;BME280;10233;50.814;6.590;2023-04-22T03:42:13;99411.78;;;9.66;100.00
20145;BME280;10233;50.814;6.590;2023-04-22T03:43:16;99416.25;;;9.66;100.00
20145;BME280;10233;50.814;6.590;2023-04-22T03:44:24;99419.56;;;9.61;100.00
20145;BME280;10233;50.814;6.590;2023-04-22T03:45:26;99412.38;;;9.68;100.00
20145;BME280;10233;50.814;6.590;2023-04-22T03:46:45;99404.50;;;9.80;100.00
20145;BME280;10233;50.814;6.590;2023-04-22T03:47:52;99403.63;;;9.86;100.00
20145;BME280;10233;50.814;6.590;2023-04-22T03:48:58;99398.53;;;9.84;100.00
20145;BME280;10233;50.814;6.590;2023-04-22T03:50:02;99392.66;;;9.82;100.00
20145;BME280;10233;50.814;6.590;2023-04-22T03:51:06;99394.31;;;9.77;100.00
20145;BME280;10233;50.814;6.590;2023-04-22T03:52:09;99401.50;;;9.76;100.00
20145;BME280;10233;50.814;6.590;2023-04-22T03:53:14;99399.84;;;9.75;100.00
20145;BME280;10233;50.814;6.590;2023-04-22T03:54:15;99399.72;;;9.88;100.00
20145;BME280;10233;50.814;6.590;2023-04-22T03:55:21;99400.63;;;9.82;100.00
20145;BME280;10233;50.814;6.590;2023-04-22T03:56:25;99405.50;;;9.85;100.00
20145;BME280;10233;50.814;6.590;2023-04-22T03:57:29;99400.19;;;9.85;100.00
20145;BME280;10233;50.814;6.590;2023-04-22T03:58:31;99401.66;;;9.81;100.00
20145;BME280;10233;50.814;6.590;2023-04-22T03:59:33;99403.88;;;9.60;100.00
20145;BME280;10233;50.814;6.590;2023-04-22T04:00:34;99399.03;;;9.50;100.00
20145;BME280;10233;50.814;6.590;2023-04-22T04:01:45;99396.38;;;9.50;100.00
20145;BME280;10233;50.814;6.590;2023-04-22T04:02:46;99392.94;;;9.50;100.00
20145;BME280;10233;50.814;6.590;2023-04-22T04:03:50;99393.03;;;9.61;100.00
20145;BME280;10233;50.814;6.590;2023-04-22T04:04:51;99397.47;;;9.67;100.00
20145;BME280;10233;50.814;6.590;2023-04-22T04:05:53;99398.69;;;9.71;100.00
20145;BME280;10233;50.814;6.590;2023-04-22T04:06:55;99389.06;;;9.70;100.00
20145;BME280;10233;50.814;6.590;2023-04-22T04:07:56;99387.44;;;9.69;100.00
20145;BME280;10233;50.814;6.590;2023-04-22T04:08:59;99388.84;;;9.72;100.00
20145;BME280;10233;50.814;6.590;2023-04-22T04:10:01;99389.34;;;9.62;100.00
20145;BME280;10233;50.814;6.590;2023-04-22T04:11:08;99391.97;;;9.69;100.00
20145;BME280;10233;50.814;6.590;2023-04-22T04:12:08;99400.19;;;9.61;100.00
20145;BME280;10233;50.814;6.590;2023-04-22T04:13:13;99389.34;;;9.62;100.00
20145;BME280;10233;50.814;6.590;2023-04-22T04:14:53;99390.41;;;9.61;100.00
20145;BME280;10233;50.814;6.590;2023-04-22T04:15:54;99397.16;;;9.57;100.00
20145;BME280;10233;50.814;6.590;2023-04-22T04:16:55;99395.47;;;9.63;100.00
20145;BME280;10233;50.814;6.590;2023-04-22T04:18:00;99396.66;;;9.67;100.00
20145;BME280;10233;50.814;6.590;2023-04-22T04:19:02;99395.75;;;9.55;100.00
20145;BME280;10233;50.814;6.590;2023-04-22T04:20:05;99395.69;;;9.61;100.00
20145;BME280;10233;50.814;6.590;2023-04-22T04:21:06;99392.53;;;9.71;100.00
20145;BME280;10233;50.814;6.590;2023-04-22T04:22:12;99390.72;;;9.71;100.00
20145;BME280;10233;50.814;6.590;2023-04-22T04:23:23;99383.75;;;9.70;100.00
20145;BME280;10233;50.814;6.590;2023-04-22T04:24:23;99394.66;;;9.62;100.00
20145;BME280;10233;50.814;6.590;2023-04-22T04:25:28;99390.59;;;9.60;100.00
20145;BME280;10233;50.814;6.590;2023-04-22T04:26:39;99392.19;;;9.67;100.00
20145;BME280;10233;50.814;6.590;2023-04-22T04:27:46;99379.06;;;9.72;100.00
20145;BME280;10233;50.814;6.590;2023-04-22T04:28:47;99381.88;;;9.77;100.00
20145;BME280;10233;50.814;6.590;2023-04-22T04:29:50;99380.25;;;9.76;100.00
20145;BME280;10233;50.814;6.590;2023-04-22T04:31:01;99379.84;;;9.73;100.00
20145;BME280;10233;50.814;6.590;2023-04-22T04:32:09;99383.13;;;9.75;100.00
20145;BME280;10233;50.814;6.590;2023-04-22T04:33:09;99375.78;;;9.70;100.00
20145;BME280;10233;50.814;6.590;2023-04-22T04:34:13;99377.59;;;9.76;100.00
20145;BME280;10233;50.814;6.590;2023-04-22T04:35:14;99371.41;;;9.82;100.00
20145;BME280;10233;50.814;6.590;2023-04-22T04:36:20;99374.94;;;9.76;100.00
20145;BME280;10233;50.814;6.590;2023-04-22T04:37:21;99374.78;;;9.71;100.00
20145;BME280;10233;50.814;6.590;2023-04-22T04:38:32;99371.69;;;9.74;100.00
20145;BME280;10233;50.814;6.590;2023-04-22T04:39:33;99379.22;;;9.77;100.00
20145;BME280;10233;50.814;6.590;2023-04-22T04:40:35;99370.66;;;9.75;100.00
20145;BME280;10233;50.814;6.590;2023-04-22T04:41:41;99370.59;;;9.82;100.00
20145;BME280;10233;50.814;6.590;2023-04-22T04:42:42;99367.72;;;9.83;100.00
20145;BME280;10233;50.814;6.590;2023-04-22T04:43:49;99367.88;;;9.88;100.00
20145;BME280;10233;50.814;6.590;2023-04-22T04:44:57;99370.69;;;9.93;100.00
20145;BME280;10233;50.814;6.590;2023-04-22T04:45:59;99366.63;;;9.91;100.00
20145;BME280;10233;50.814;6.590;2023-04-22T04:47:05;99370.09;;;9.91;100.00
20145;BME280;10233;50.814;6.590;2023-04-22T04:48:06;99369.28;;;9.91;100.00
20145;BME280;10233;50.814;6.590;2023-04-22T04:49:10;99369.28;;;9.91;100.00
20145;BME280;10233;50.814;6.590;2023-04-22T04:50:21;99368.91;;;9.87;100.00
20145;BME280;10233;50.814;6.590;2023-04-22T04:51:23;99375.63;;;9.90;100.00
20145;BME280;10233;50.814;6.590;2023-04-22T04:52:29;99369.34;;;9.84;100.00
20145;BME280;10233;50.814;6.590;2023-04-22T04:53:31;99369.94;;;9.86;100.00
20145;BME280;10233;50.814;6.590;2023-04-22T04:54:32;99368.91;;;9.87;100.00
20145;BME280;10233;50.814;6.590;2023-04-22T04:55:34;99361.53;;;9.89;100.00
20145;BME280;10233;50.814;6.590;2023-04-22T04:56:38;99369.75;;;9.88;100.00
20145;BME280;10233;50.814;6.590;2023-04-22T04:57:44;99360.13;;;9.87;100.00
20145;BME280;10233;50.814;6.590;2023-04-22T04:58:46;99362.19;;;9.85;100.00
20145;BME280;10233;50.814;6.590;2023-04-22T04:59:52;99357.72;;;9.85;100.00
20145;BME280;10233;50.814;6.590;2023-04-22T05:00:54;99360.38;;;9.85;100.00
20145;BME280;10233;50.814;6.590;2023-04-22T05:01:55;99355.66;;;9.87;100.00
20145;BME280;10233;50.814;6.590;2023-04-22T05:02:56;99362.41;;;9.83;100.00
20145;BME280;10233;50.814;6.590;2023-04-22T05:03:56;99355.91;;;9.79;100.00
20145;BME280;10233;50.814;6.590;2023-04-22T05:04:57;99362.25;;;9.78;100.00
20145;BME280;10233;50.814;6.590;2023-04-22T05:05:58;99355.91;;;9.79;100.00
20145;BME280;10233;50.814;6.590;2023-04-22T05:06:59;99358.94;;;9.83;100.00
20145;BME280;10233;50.814;6.590;2023-04-22T05:08:00;99360.38;;;9.85;100.00
20145;BME280;10233;50.814;6.590;2023-04-22T05:09:01;99360.94;;;9.87;100.00
20145;BME280;10233;50.814;6.590;2023-04-22T05:10:02;99365.44;;;9.87;100.00
20145;BME280;10233;50.814;6.590;2023-04-22T05:11:03;99376.00;;;9.93;100.00
20145;BME280;10233;50.814;6.590;2023-04-22T05:12:04;99365.38;;;9.93;100.00
20145;BME280;10233;50.814;6.590;2023-04-22T05:13:05;99361.25;;;9.97;100.00
20145;BME280;10233;50.814;6.590;2023-04-22T05:14:06;99369.81;;;9.99;100.00
20145;BME280;10233;50.814;6.590;2023-04-22T05:15:13;99368.31;;;10.10;100.00
20145;BME280;10233;50.814;6.590;2023-04-22T05:16:14;99370.13;;;10.09;100.00
20145;BME280;10233;50.814;6.590;2023-04-22T05:17:14;99372.44;;;10.06;100.00
20145;BME280;10233;50.814;6.590;2023-04-22T05:18:16;99368.09;;;10.11;100.00
20145;BME280;10233;50.814;6.590;2023-04-22T05:19:17;99362.41;;;10.08;100.00
20145;BME280;10233;50.814;6.590;2023-04-22T05:20:19;99367.63;;;10.14;100.00
20145;BME280;10233;50.814;6.590;2023-04-22T05:21:20;99364.75;;;10.16;100.00
20145;BME280;10233;50.814;6.590;2023-04-22T05:22:20;99364.53;;;10.17;100.00
20145;BME280;10233;50.814;6.590;2023-04-22T05:23:22;99361.00;;;10.23;100.00
20145;BME280;10233;50.814;6.590;2023-04-22T05:24:26;99362.78;;;10.29;100.00
20145;BME280;10233;50.814;6.590;2023-04-22T05:25:26;99363.59;;;10.30;100.00
20145;BME280;10233;50.814;6.590;2023-04-22T05:26:33;99368.59;;;10.38;100.00
20145;BME280;10233;50.814;6.590;2023-04-22T05:27:36;99369.31;;;10.45;100.00
20145;BME280;10233;50.814;6.590;2023-04-22T05:28:37;99362.41;;;10.44;100.00